createdAt,value
2022-10-29T00:01:15.331Z,14.57
2022-10-29T00:03:44.018Z,15.75
2022-10-29T00:06:13.733Z,14.03
2022-10-29T00:08:43.370Z,14.63
2022-10-29T00:11:13.839Z,13.65
2022-10-29T00:13:43.603Z,15.00
2022-10-29T00:16:16.001Z,14.95
2022-10-29T00:18:45.163Z,14.02
2022-10-29T00:21:16.295Z,15.15
2022-10-29T00:23:45.063Z,14.32
2022-10-29T00:26:14.057Z,13.52
2022-10-29T00:28:43.008Z,13.00
2022-10-29T00:31:15.862Z,13.73
2022-10-29T00:33:44.827Z,13.63
2022-10-29T00:36:16.285Z,12.07
2022-10-29T00:38:45.292Z,13.55
2022-10-29T00:41:19.045Z,12.52
2022-10-29T00:43:50.534Z,12.32
2022-10-29T00:46:28.195Z,12.05
2022-10-29T00:48:58.684Z,11.68
2022-10-29T00:51:28.351Z,12.00
2022-10-29T00:54:00.643Z,12.23
2022-10-29T00:56:33.064Z,11.50
2022-10-29T00:59:02.284Z,11.85
2022-10-29T01:01:32.536Z,12.32
2022-10-29T01:04:01.776Z,12.60
2022-10-29T01:06:31.416Z,11.65
2022-10-29T01:09:00.111Z,12.30
2022-10-29T01:11:40.986Z,11.87
2022-10-29T01:14:19.763Z,11.20
2022-10-29T01:16:57.368Z,12.07
2022-10-29T01:19:48.274Z,11.00
2022-10-29T01:22:22.180Z,11.98
2022-10-29T01:25:19.761Z,10.60
2022-10-29T01:28:03.009Z,11.63
2022-10-29T01:31:00.529Z,11.68
2022-10-29T01:33:38.938Z,10.52
2022-10-29T01:36:14.748Z,11.75
2022-10-29T01:38:54.087Z,9.70
2022-10-29T01:41:26.830Z,12.13
2022-10-29T01:44:00.452Z,11.93
2022-10-29T01:46:36.722Z,10.82
2022-10-29T01:49:08.758Z,12.10
2022-10-29T01:51:39.517Z,10.15
2022-10-29T01:54:10.832Z,11.07
2022-10-29T01:56:39.692Z,10.70
2022-10-29T01:59:18.323Z,10.95
2022-10-29T02:02:08.945Z,10.93
2022-10-29T02:04:52.505Z,9.32
2022-10-29T02:07:35.156Z,10.55
2022-10-29T02:10:14.569Z,9.85
2022-10-29T02:15:21.079Z,11.65
2022-10-29T02:17:51.337Z,12.15
2022-10-29T02:20:20.359Z,11.48
2022-10-29T02:22:49.060Z,12.25
2022-10-29T02:25:17.861Z,11.83
2022-10-29T02:27:46.648Z,11.55
2022-10-29T02:30:15.855Z,12.98
2022-10-29T02:32:44.636Z,14.50
2022-10-29T02:35:14.838Z,15.52
2022-10-29T02:37:44.195Z,15.32
2022-10-29T02:40:13.964Z,15.07
2022-10-29T02:42:42.623Z,15.80
2022-10-29T02:45:11.865Z,14.93
2022-10-29T02:47:40.443Z,15.65
2022-10-29T02:50:10.358Z,16.07
2022-10-29T02:52:41.178Z,15.90
2022-10-29T02:55:10.688Z,16.42
2022-10-29T03:00:08.787Z,13.70
2022-10-29T03:02:37.499Z,15.80
2022-10-29T03:05:06.824Z,15.95
2022-10-29T03:07:37.229Z,14.75
2022-10-29T03:10:08.455Z,15.98
2022-10-29T03:12:37.200Z,17.27
2022-10-29T03:15:06.420Z,17.77
2022-10-29T03:17:35.017Z,17.02
2022-10-29T03:20:03.549Z,16.60
2022-10-29T03:22:32.353Z,15.93
2022-10-29T03:25:00.976Z,17.03
2022-10-29T03:27:31.027Z,14.40
2022-10-29T03:29:59.629Z,16.80
2022-10-29T03:32:28.156Z,14.30
2022-10-29T03:34:59.835Z,14.93
2022-10-29T03:37:28.874Z,15.25
2022-10-29T03:39:57.495Z,15.87
2022-10-29T03:42:26.216Z,15.18
2022-10-29T03:44:56.230Z,14.55
2022-10-29T03:47:24.923Z,14.48
2022-10-29T03:49:53.474Z,14.60
2022-10-29T03:52:22.486Z,14.33
2022-10-29T03:54:51.096Z,15.05
2022-10-29T03:57:19.726Z,15.80
2022-10-29T03:59:51.582Z,14.43
2022-10-29T04:02:22.964Z,13.90
2022-10-29T04:04:51.792Z,15.07
2022-10-29T04:07:20.718Z,13.77
2022-10-29T04:09:49.408Z,13.20
2022-10-29T04:12:17.935Z,13.88
2022-10-29T04:14:48.533Z,13.67
2022-10-29T04:17:17.235Z,14.15
2022-10-29T04:19:47.194Z,12.67
2022-10-29T04:30:44.468Z,13.27
2022-10-29T04:33:13.027Z,12.87
2022-10-29T04:35:43.123Z,13.30
2022-10-29T04:38:12.824Z,13.85
2022-10-29T04:43:10.030Z,14.43
2022-10-29T04:45:38.594Z,13.75
2022-10-29T04:48:08.265Z,14.30
2022-10-29T04:50:39.351Z,13.45
2022-10-29T04:53:10.105Z,13.95
2022-10-29T04:55:40.243Z,13.68
2022-10-29T04:58:13.159Z,12.18
2022-10-29T05:00:41.978Z,13.70
2022-10-29T05:03:10.602Z,12.80
2022-10-29T05:05:40.118Z,12.15
2022-10-29T05:08:12.613Z,12.60
2022-10-29T05:10:41.718Z,11.60
2022-10-29T05:13:12.797Z,12.88
2022-10-29T05:15:42.050Z,13.57
2022-10-29T05:18:11.649Z,12.30
2022-10-29T05:20:40.256Z,11.27
2022-10-29T05:23:12.305Z,12.50
2022-10-29T05:25:42.612Z,12.30
2022-10-29T05:28:14.664Z,11.65
2022-10-29T05:30:44.079Z,11.45
2022-10-29T05:33:15.627Z,11.60
2022-10-29T05:35:44.475Z,11.45
2022-10-29T05:38:15.214Z,10.90
2022-10-29T05:40:45.446Z,10.70
2022-10-29T05:43:15.507Z,9.60
2022-10-29T05:45:45.052Z,10.68
2022-10-29T05:48:14.291Z,10.75
2022-10-29T05:50:43.088Z,10.18
2022-10-29T05:53:14.697Z,11.35
2022-10-29T05:55:44.133Z,11.15
2022-10-29T05:58:13.900Z,11.93
2022-10-29T06:00:44.476Z,12.27
2022-10-29T06:03:15.437Z,13.00
2022-10-29T06:05:44.117Z,11.85
2022-10-29T06:08:14.358Z,13.13
2022-10-29T06:10:42.981Z,11.55
2022-10-29T06:13:12.884Z,12.10
2022-10-29T06:15:41.632Z,12.90
2022-10-29T06:18:10.300Z,13.18
2022-10-29T06:20:39.978Z,13.65
2022-10-29T06:23:09.013Z,13.73
2022-10-29T06:25:38.997Z,14.13
2022-10-29T06:28:09.829Z,12.27
2022-10-29T06:30:38.912Z,13.40
2022-10-29T06:33:07.476Z,12.93
2022-10-29T06:35:36.443Z,12.55
2022-10-29T06:38:10.909Z,14.23
2022-10-29T06:40:42.434Z,13.55
2022-10-29T06:43:13.131Z,13.15
2022-10-29T06:45:41.875Z,13.57
2022-10-29T06:48:10.978Z,16.90
2022-10-29T06:50:39.598Z,15.85
2022-10-29T06:53:11.224Z,13.90
2022-10-29T06:55:41.648Z,14.38
2022-10-29T06:58:15.147Z,14.57
2022-10-29T07:00:44.255Z,15.57
2022-10-29T07:03:14.486Z,13.90
2022-10-29T07:05:44.511Z,14.05
2022-10-29T07:08:13.453Z,14.43
2022-10-29T07:10:46.172Z,14.35
2022-10-29T07:13:14.939Z,12.75
2022-10-29T07:15:43.477Z,13.85
2022-10-29T07:18:13.207Z,12.27
2022-10-29T07:20:44.095Z,13.05
2022-10-29T07:23:14.133Z,12.15
2022-10-29T07:25:44.677Z,11.15
2022-10-29T07:28:15.052Z,12.23
2022-10-29T07:30:44.095Z,12.20
2022-10-29T07:33:12.958Z,12.77
2022-10-29T07:35:41.664Z,11.85
2022-10-29T07:38:12.054Z,13.48
2022-10-29T07:40:41.662Z,12.93
2022-10-29T07:43:12.079Z,13.80
2022-10-29T07:45:40.705Z,11.80
2022-10-29T07:48:10.598Z,13.23
2022-10-29T07:50:40.325Z,13.55
2022-10-29T07:53:09.966Z,13.52
2022-10-29T07:55:38.699Z,13.00
2022-10-29T07:58:09.009Z,13.63
2022-10-29T08:00:41.097Z,13.05
2022-10-29T08:03:11.704Z,12.05
2022-10-29T08:05:42.702Z,12.60
2022-10-29T08:08:11.887Z,13.30
2022-10-29T08:10:40.579Z,12.10
2022-10-29T08:13:09.400Z,13.85
2022-10-29T08:15:39.387Z,13.55
2022-10-29T08:18:15.715Z,12.77
2022-10-29T08:20:44.677Z,14.38
2022-10-29T08:23:13.535Z,15.77
2022-10-29T08:25:43.073Z,14.27
2022-10-29T08:28:13.592Z,17.27
2022-10-29T08:30:45.418Z,17.98
2022-10-29T08:33:14.029Z,17.75
2022-10-29T08:35:42.547Z,17.57
2022-10-29T08:38:13.244Z,19.03
2022-10-29T08:40:49.512Z,20.17
2022-10-29T08:43:27.623Z,23.20
2022-10-29T08:45:58.373Z,21.30
2022-10-29T08:48:33.765Z,22.13
2022-10-29T08:51:05.568Z,23.10
2022-10-29T08:53:39.266Z,22.67
2022-10-29T08:56:14.536Z,23.80
2022-10-29T08:58:48.110Z,24.58
2022-10-29T09:01:22.385Z,24.25
2022-10-29T09:03:51.518Z,25.70
2022-10-29T09:06:26.114Z,26.45
2022-10-29T09:09:28.580Z,26.27
2022-10-29T09:12:31.349Z,26.85
2022-10-29T09:15:16.878Z,25.98
2022-10-29T09:18:08.655Z,26.38
2022-10-29T09:20:47.938Z,27.13
2022-10-29T09:23:29.343Z,27.90
2022-10-29T09:26:00.814Z,28.35
2022-10-29T09:28:35.104Z,26.42
2022-10-29T09:31:08.163Z,26.75
2022-10-29T09:33:39.197Z,29.80
2022-10-29T09:36:15.593Z,25.98
2022-10-29T09:38:50.059Z,28.77
2022-10-29T09:41:22.210Z,29.60
2022-10-29T09:43:56.951Z,28.15
2022-10-29T09:46:32.586Z,29.33
2022-10-29T09:49:10.301Z,27.58
2022-10-29T09:51:44.776Z,26.90
2022-10-29T09:54:16.753Z,27.00
2022-10-29T09:56:54.760Z,27.92
2022-10-29T10:01:56.574Z,26.23
2022-10-29T10:04:29.860Z,26.02
2022-10-29T10:07:09.251Z,25.48
2022-10-29T10:12:09.681Z,24.90
2022-10-29T10:14:38.657Z,22.90
2022-10-29T10:17:07.685Z,21.63
2022-10-29T10:19:44.528Z,21.17
2022-10-29T10:22:24.488Z,22.33
2022-10-29T10:24:53.366Z,20.92
2022-10-29T10:27:31.741Z,20.48
2022-10-29T10:30:16.065Z,20.03
2022-10-29T10:32:44.673Z,19.88
2022-10-29T10:35:32.390Z,20.02
2022-10-29T10:38:08.620Z,21.48
2022-10-29T10:40:39.208Z,21.20
2022-10-29T10:43:09.159Z,20.50
2022-10-29T10:45:40.365Z,21.23
2022-10-29T10:48:11.651Z,20.23
2022-10-29T10:50:41.828Z,20.02
2022-10-29T10:53:20.403Z,19.60
2022-10-29T10:55:51.959Z,20.88
2022-10-29T10:58:28.024Z,21.75
2022-10-29T11:01:00.819Z,19.50
2022-10-29T11:03:37.765Z,20.15
2022-10-29T11:06:11.713Z,21.10
2022-10-29T11:08:46.138Z,19.70
2022-10-29T11:11:19.690Z,20.40
2022-10-29T11:13:50.538Z,20.60
2022-10-29T11:16:23.442Z,20.20
2022-10-29T11:19:00.477Z,19.40
2022-10-29T11:21:36.275Z,20.02
2022-10-29T11:24:10.282Z,19.58
2022-10-29T11:26:43.467Z,19.08
2022-10-29T11:29:19.274Z,18.38
2022-10-29T11:31:55.297Z,18.88
2022-10-29T11:34:31.708Z,18.75
2022-10-29T11:37:09.200Z,18.73
2022-10-29T11:39:47.083Z,18.65
2022-10-29T11:42:15.904Z,18.30
2022-10-29T11:44:44.549Z,17.10
2022-10-29T11:47:32.842Z,17.42
2022-10-29T11:50:16.365Z,15.43
2022-10-29T11:52:53.250Z,14.65
2022-10-29T11:55:31.815Z,15.13
2022-10-29T11:58:03.127Z,14.50
2022-10-29T12:00:38.836Z,13.45
2022-10-29T12:03:45.850Z,12.45
2022-10-29T12:06:21.528Z,11.63
2022-10-29T12:09:23.659Z,12.43
2022-10-29T12:12:01.132Z,10.52
2022-10-29T12:14:35.846Z,9.65
2022-10-29T12:17:10.988Z,9.45
2022-10-29T12:19:47.814Z,8.57
2022-10-29T12:22:29.922Z,7.82
2022-10-29T12:25:16.492Z,7.38
2022-10-29T12:27:52.153Z,7.68
2022-10-29T12:30:23.555Z,6.30
2022-10-29T12:33:00.730Z,6.32
2022-10-29T12:35:35.077Z,5.78
2022-10-29T12:38:25.964Z,5.20
2022-10-29T12:41:02.674Z,5.25
2022-10-29T12:43:33.117Z,4.47
2022-10-29T12:46:25.288Z,4.47
2022-10-29T12:49:05.666Z,3.95
2022-10-29T12:51:44.354Z,3.33
2022-10-29T12:54:27.555Z,3.65
2022-10-29T12:57:04.432Z,3.17
2022-10-29T12:59:35.859Z,2.95
2022-10-29T13:02:34.283Z,3.58
2022-10-29T13:05:18.784Z,3.33
2022-10-29T13:08:19.378Z,3.15
2022-10-29T13:10:55.954Z,3.40
2022-10-29T13:13:52.585Z,3.38
2022-10-29T13:16:26.895Z,3.17
2022-10-29T13:19:29.515Z,3.63
2022-10-29T13:22:25.207Z,3.30
2022-10-29T13:25:27.074Z,3.20
2022-10-29T13:27:56.140Z,2.90
2022-10-29T13:30:27.836Z,3.20
2022-10-29T13:32:57.657Z,3.47
2022-10-29T13:35:43.173Z,3.40
2022-10-29T13:38:19.749Z,2.95
2022-10-29T13:41:15.931Z,3.03
2022-10-29T13:43:54.592Z,3.25
2022-10-29T13:46:49.107Z,2.72
2022-10-29T13:49:21.749Z,2.80
2022-10-29T13:51:56.716Z,2.70
2022-10-29T13:54:38.839Z,2.88
2022-10-29T13:57:16.613Z,2.58
2022-10-29T13:59:49.833Z,2.85
2022-10-29T14:02:30.177Z,3.47
2022-10-29T14:05:04.497Z,2.47
2022-10-29T14:07:40.527Z,2.58
2022-10-29T14:10:18.604Z,2.35
2022-10-29T14:12:50.429Z,2.50
2022-10-29T14:15:19.621Z,2.33
2022-10-29T14:17:49.755Z,2.50
2022-10-29T14:20:24.209Z,2.42
2022-10-29T14:22:52.975Z,2.53
2022-10-29T14:25:30.558Z,2.33
2022-10-29T14:28:27.452Z,2.58
2022-10-29T14:31:04.953Z,2.30
2022-10-29T14:33:37.013Z,2.75
2022-10-29T14:36:21.891Z,2.20
2022-10-29T14:38:53.422Z,2.25
2022-10-29T14:41:23.559Z,2.22
2022-10-29T14:44:02.189Z,2.08
2022-10-29T14:46:32.774Z,2.35
2022-10-29T14:49:10.758Z,2.17
2022-10-29T14:51:42.935Z,2.13
2022-10-29T14:54:20.951Z,2.05
2022-10-29T14:56:52.631Z,2.58
2022-10-29T14:59:28.093Z,2.22
2022-10-29T15:02:17.382Z,1.95
2022-10-29T15:04:56.876Z,2.70
2022-10-29T15:07:34.946Z,1.98
2022-10-29T15:10:22.448Z,2.00
2022-10-29T15:12:52.259Z,2.20
2022-10-29T15:15:26.634Z,2.05
2022-10-29T15:18:00.001Z,1.80
2022-10-29T15:20:36.639Z,2.03
2022-10-29T15:23:05.651Z,2.00
2022-10-29T15:25:38.095Z,2.35
2022-10-29T15:28:11.996Z,2.05
2022-10-29T15:30:41.403Z,1.70
2022-10-29T15:33:19.140Z,1.80
2022-10-29T15:35:53.918Z,2.00
2022-10-29T15:39:04.412Z,1.95
2022-10-29T15:41:38.790Z,1.98
2022-10-29T15:44:32.376Z,2.45
2022-10-29T15:47:02.358Z,2.38
2022-10-29T15:49:32.610Z,1.95
2022-10-29T15:52:03.155Z,1.88
2022-10-29T15:54:31.746Z,1.67
2022-10-29T15:57:00.422Z,1.97
2022-10-29T15:59:29.174Z,1.75
2022-10-29T16:01:57.982Z,2.40
2022-10-29T16:04:26.740Z,2.28
2022-10-29T16:06:55.318Z,2.10
2022-10-29T16:09:25.442Z,2.23
2022-10-29T16:11:54.168Z,2.20
2022-10-29T16:14:22.815Z,2.10
2022-10-29T16:16:51.557Z,2.63
2022-10-29T16:19:20.196Z,1.83
2022-10-29T16:21:48.915Z,1.88
2022-10-29T16:24:17.834Z,1.88
2022-10-29T16:26:47.885Z,1.85
2022-10-29T16:29:16.566Z,1.70
2022-10-29T16:31:45.641Z,1.95
2022-10-29T16:34:17.235Z,1.80
2022-10-29T16:36:48.563Z,1.60
2022-10-29T16:39:17.123Z,1.73
2022-10-29T16:41:47.486Z,1.60
2022-10-29T16:44:16.205Z,1.73
2022-10-29T16:46:44.777Z,2.20
2022-10-29T16:49:13.413Z,2.13
2022-10-29T16:51:41.999Z,1.80
2022-10-29T16:54:10.719Z,2.60
2022-10-29T16:56:39.399Z,2.50
2022-10-29T16:59:09.498Z,2.33
2022-10-29T17:01:38.145Z,2.40
2022-10-29T17:04:08.361Z,2.30
2022-10-29T17:06:37.086Z,1.55
2022-10-29T17:09:07.721Z,2.70
2022-10-29T17:11:36.406Z,2.15
2022-10-29T17:14:05.117Z,2.17
2022-10-29T17:19:08.746Z,2.00
2022-10-29T17:21:37.341Z,2.20
2022-10-29T17:24:07.853Z,1.90
2022-10-29T17:26:36.908Z,1.98
2022-10-29T17:29:05.540Z,2.08
2022-10-29T17:31:35.542Z,1.90
2022-10-29T17:34:04.283Z,2.45
2022-10-29T17:36:32.929Z,2.33
2022-10-29T17:39:01.586Z,2.60
2022-10-29T17:41:30.091Z,1.83
2022-10-29T17:43:58.861Z,2.17
2022-10-29T17:46:27.477Z,2.00
2022-10-29T17:48:58.052Z,2.30
2022-10-29T17:51:26.926Z,1.55
2022-10-29T17:53:55.568Z,2.38
2022-10-29T17:56:24.482Z,3.30
2022-10-29T17:58:53.119Z,2.00
2022-10-29T18:01:22.004Z,2.00
2022-10-29T18:03:50.701Z,2.22
2022-10-29T18:06:20.760Z,2.30
2022-10-29T18:08:49.507Z,2.13
2022-10-29T18:11:20.333Z,2.33
2022-10-29T18:13:50.389Z,2.05
2022-10-29T18:16:21.177Z,2.38
2022-10-29T18:19:01.317Z,2.35
2022-10-29T18:21:32.934Z,2.40
2022-10-29T18:24:01.620Z,2.42
2022-10-29T18:26:32.172Z,2.03
2022-10-29T18:29:02.511Z,2.47
2022-10-29T18:31:33.119Z,1.75
2022-10-29T18:34:05.207Z,2.08
2022-10-29T18:36:36.685Z,2.70
2022-10-29T18:39:07.131Z,2.25
2022-10-29T18:41:36.456Z,2.05
2022-10-29T18:44:05.311Z,2.30
2022-10-29T18:46:34.311Z,1.88
2022-10-29T18:49:03.009Z,2.50
2022-10-29T18:51:33.217Z,2.28
2022-10-29T18:54:03.373Z,2.05
2022-10-29T18:56:32.194Z,2.22
2022-10-29T18:59:01.289Z,2.58
2022-10-29T19:01:32.515Z,2.40
2022-10-29T19:04:02.651Z,2.97
2022-10-29T19:06:33.484Z,2.42
2022-10-29T19:09:05.718Z,1.90
2022-10-29T19:11:34.810Z,2.40
2022-10-29T19:14:05.150Z,2.10
2022-10-29T19:16:34.747Z,2.50
2022-10-29T19:21:38.971Z,1.98
2022-10-29T19:24:12.444Z,1.88
2022-10-29T19:26:41.143Z,2.65
2022-10-29T19:29:10.983Z,2.50
2022-10-29T19:31:40.032Z,1.70
2022-10-29T19:34:09.609Z,2.22
2022-10-29T19:36:40.420Z,3.22
2022-10-29T19:39:10.730Z,1.83
2022-10-29T19:41:39.456Z,2.03
2022-10-29T19:44:08.133Z,2.23
2022-10-29T19:46:36.799Z,1.98
2022-10-29T19:49:05.626Z,1.80
2022-10-29T19:51:34.319Z,3.30
2022-10-29T19:54:04.189Z,3.03
2022-10-29T19:56:34.258Z,2.20
2022-10-29T19:59:04.526Z,2.08
2022-10-29T20:01:33.500Z,2.13
2022-10-29T20:04:02.218Z,2.42
2022-10-29T20:06:30.856Z,3.10
2022-10-29T20:08:59.538Z,2.47
2022-10-29T20:11:28.143Z,3.00
2022-10-29T20:13:58.217Z,2.30
2022-10-29T20:16:26.883Z,2.58
2022-10-29T20:18:55.529Z,2.30
2022-10-29T20:21:24.211Z,2.23
2022-10-29T20:23:52.842Z,2.00
2022-10-29T20:26:22.626Z,1.97
2022-10-29T20:28:51.348Z,2.10
2022-10-29T20:31:31.026Z,2.53
2022-10-29T20:34:02.216Z,2.70
2022-10-29T20:36:32.680Z,3.03
2022-10-29T20:39:01.691Z,2.15
2022-10-29T20:41:31.514Z,2.15
2022-10-29T20:44:01.462Z,2.00
2022-10-29T20:46:31.592Z,2.00
2022-10-29T20:49:00.404Z,1.90
2022-10-29T20:51:29.664Z,2.03
2022-10-29T20:53:58.421Z,2.08
2022-10-29T20:56:28.477Z,2.60
2022-10-29T20:58:57.290Z,1.80
2022-10-29T21:01:26.283Z,3.00
2022-10-29T21:03:56.894Z,1.90
2022-10-29T21:06:25.965Z,2.10
2022-10-29T21:08:54.981Z,2.10
2022-10-29T21:11:24.680Z,1.75
2022-10-29T21:13:53.526Z,2.25
2022-10-29T21:16:24.372Z,1.80
2022-10-29T21:18:56.728Z,2.50
2022-10-29T21:21:25.976Z,3.08
2022-10-29T21:23:54.923Z,2.33
2022-10-29T21:26:25.331Z,2.83
2022-10-29T21:28:55.058Z,1.92
2022-10-29T21:31:24.282Z,2.05
2022-10-29T21:37:51.257Z,2.50
2022-10-29T21:40:20.163Z,2.83
2022-10-29T21:42:48.698Z,2.93
2022-10-29T21:45:17.487Z,1.77
2022-10-29T21:47:46.083Z,2.05
2022-10-29T21:50:16.311Z,2.73
2022-10-29T21:56:27.028Z,2.00
2022-10-29T21:58:55.713Z,2.45
2022-10-29T22:01:24.477Z,2.50
2022-10-29T22:03:53.188Z,2.75
2022-10-29T22:06:25.868Z,2.60
2022-10-29T22:08:56.155Z,2.38
2022-10-29T22:11:25.895Z,2.45
2022-10-29T22:13:54.930Z,1.88
2022-10-29T22:16:24.382Z,2.20
2022-10-29T22:18:54.006Z,2.38
2022-10-29T22:21:25.770Z,1.90
2022-10-29T22:23:56.353Z,1.95
2022-10-29T22:26:27.478Z,1.70
2022-10-29T22:28:56.710Z,2.30
2022-10-29T22:31:25.942Z,2.25
2022-10-29T22:33:54.966Z,2.15
2022-10-29T22:36:26.838Z,2.22
2022-10-29T22:38:56.523Z,2.45
2022-10-29T22:41:26.154Z,1.70
2022-10-29T22:43:55.532Z,2.97
2022-10-29T22:46:24.452Z,2.42
2022-10-29T22:48:53.152Z,2.10
2022-10-29T22:51:24.043Z,2.47
2022-10-29T22:53:55.130Z,3.08
2022-10-29T22:56:26.249Z,1.73
2022-10-29T22:58:55.356Z,2.10
2022-10-29T23:01:25.709Z,2.30
2022-10-29T23:03:54.545Z,2.58
2022-10-29T23:06:24.718Z,2.58
2022-10-29T23:08:55.888Z,2.10
2022-10-29T23:11:26.616Z,2.08
2022-10-29T23:13:56.742Z,2.00
2022-10-29T23:16:27.171Z,2.45
2022-10-29T23:18:57.605Z,2.25
2022-10-29T23:21:26.301Z,2.78
2022-10-29T23:23:56.350Z,2.90
2022-10-29T23:26:26.454Z,2.35
2022-10-29T23:28:55.278Z,2.28
2022-10-29T23:31:25.394Z,2.30
2022-10-29T23:33:56.064Z,2.20
2022-10-29T23:36:26.431Z,2.25
2022-10-29T23:39:00.567Z,1.92
2022-10-29T23:41:30.354Z,2.70
2022-10-29T23:43:59.473Z,2.10
2022-10-29T23:46:28.662Z,2.22
2022-10-29T23:48:57.359Z,1.73
2022-10-29T23:51:26.822Z,2.58
2022-10-29T23:56:28.182Z,2.30
2022-10-29T23:58:57.049Z,1.70
